Time;durP1;ratioP1;P1;durP2;ratioP2;P2;SDS_P1;SDS_P2;PMS_P1;PMS_P2;Temp;Humidity;BMP_temperature;BMP_pressure;BME280_temperature;BME280_humidity;BME280_pressure;Samples;Min_cycle;Max_cycle;Signal;HPM_P1;HPM_P2
2022/02/28 00:01:02;;;;;;;14.57;10.07;;;;;;;;;;5060453;28;20417;-78
2022/02/28 00:03:28;;;;;;;16.67;10.50;;;;;;;;;;5059188;28;20413;-78
2022/02/28 00:05:54;;;;;;;13.60;9.53;;;;;;;;;;5059358;28;20421;-78
2022/02/28 00:08:21;;;;;;;19.93;11.70;;;;;;;;;;5059069;28;20496;-79
2022/02/28 00:10:47;;;;;;;11.97;9.13;;;;;;;;;;5064429;28;20517;-78
2022/02/28 00:13:13;;;;;;;17.63;9.87;;;;;;;;;;5060448;28;20393;-78
2022/02/28 00:15:39;;;;;;;15.30;10.53;;;;;;;;;;5060819;28;20453;-78
2022/02/28 00:18:05;;;;;;;20.70;10.87;;;;;;;;;;5060046;28;20402;-78
2022/02/28 00:20:31;;;;;;;17.53;10.07;;;;;;;;;;5059966;28;20524;-78
2022/02/28 00:22:57;;;;;;;15.80;10.47;;;;;;;;;;5059938;28;20758;-78
2022/02/28 00:25:23;;;;;;;18.10;10.27;;;;;;;;;;5059781;28;20429;-78
2022/02/28 00:27:49;;;;;;;12.80;9.70;;;;;;;;;;5059543;28;20445;-78
2022/02/28 00:30:15;;;;;;;14.83;9.00;;;;;;;;;;5059893;28;20429;-78
2022/02/28 00:32:42;;;;;;;22.30;11.40;;;;;;;;;;5059440;28;20413;-78
2022/02/28 00:35:08;;;;;;;15.83;10.00;;;;;;;;;;5058168;28;20994;-78
2022/02/28 00:37:34;;;;;;;16.47;10.27;;;;;;;;;;5058839;28;20424;-78
2022/02/28 00:40:01;;;;;;;14.50;9.80;;;;;;;;;;5059444;28;20765;-78
2022/02/28 00:42:27;;;;;;;17.23;10.70;;;;;;;;;;5059256;28;20406;-78
2022/02/28 00:44:53;;;;;;;14.23;10.43;;;;;;;;;;5058788;28;20777;-78
2022/02/28 00:47:19;;;;;;;15.10;9.40;;;;;;;;;;5059110;28;20409;-78
2022/02/28 00:49:45;;;;;;;17.53;10.20;;;;;;;;;;5059393;28;20405;-78
2022/02/28 00:52:11;;;;;;;15.30;11.30;;;;;;;;;;5058882;28;20425;-78
2022/02/28 00:54:37;;;;;;;15.57;10.70;;;;;;;;;;5058503;28;20489;-78
2022/02/28 00:57:03;;;;;;;15.47;9.87;;;;;;;;;;5058383;28;20420;-78
2022/02/28 00:59:29;;;;;;;14.53;10.80;;;;;;;;;;5059388;28;20797;-78
2022/02/28 01:01:56;;;;;;;22.33;11.43;;;;;;;;;;5059836;28;20426;-78
2022/02/28 01:04:22;;;;;;;14.77;9.17;;;;;;;;;;5059225;28;20401;-78
2022/02/28 01:06:49;;;;;;;16.50;10.13;;;;;;;;;;5058887;28;20409;-78
2022/02/28 01:09:15;;;;;;;17.90;11.43;;;;;;;;;;5059140;28;20774;-78
2022/02/28 01:11:41;;;;;;;14.07;10.77;;;;;;;;;;5059093;28;20429;-78
2022/02/28 01:14:08;;;;;;;16.07;11.00;;;;;;;;;;5058593;28;20468;-78
2022/02/28 01:16:35;;;;;;;14.30;9.60;;;;;;;;;;5059058;28;20412;-78
2022/02/28 01:19:01;;;;;;;19.03;11.20;;;;;;;;;;5057271;28;20437;-78
2022/02/28 01:21:27;;;;;;;17.87;10.87;;;;;;;;;;5055070;28;20452;-78
2022/02/28 01:23:53;;;;;;;17.67;10.93;;;;;;;;;;5054863;28;20424;-80
2022/02/28 01:26:19;;;;;;;17.10;11.60;;;;;;;;;;5054810;28;20398;-77
2022/02/28 01:28:45;;;;;;;17.03;11.60;;;;;;;;;;5057423;28;20490;-79
2022/02/28 01:31:11;;;;;;;16.33;11.20;;;;;;;;;;5054317;28;20461;-78
2022/02/28 01:33:37;;;;;;;16.00;10.87;;;;;;;;;;5059492;28;20444;-80
2022/02/28 01:36:04;;;;;;;18.03;11.07;;;;;;;;;;5065003;28;20460;-77
2022/02/28 01:38:30;;;;;;;14.70;10.23;;;;;;;;;;5058026;28;20398;-79
2022/02/28 01:40:56;;;;;;;14.33;10.77;;;;;;;;;;5055087;28;20452;-77
2022/02/28 01:43:22;;;;;;;17.27;11.00;;;;;;;;;;5054974;28;20393;-78
2022/02/28 01:45:48;;;;;;;19.03;9.90;;;;;;;;;;5054613;28;20413;-78
2022/02/28 01:48:14;;;;;;;18.70;11.13;;;;;;;;;;5055164;28;20479;-78
2022/02/28 01:50:40;;;;;;;22.07;11.83;;;;;;;;;;5061506;28;20436;-78
2022/02/28 01:53:06;;;;;;;16.83;10.87;;;;;;;;;;5063105;28;20473;-78
2022/02/28 01:55:32;;;;;;;13.50;11.03;;;;;;;;;;5062271;28;20488;-78
2022/02/28 01:57:59;;;;;;;16.80;10.37;;;;;;;;;;5062702;28;20886;-78
2022/02/28 02:00:26;;;;;;;18.33;11.67;;;;;;;;;;5062104;28;20433;-78
2022/02/28 02:02:52;;;;;;;18.47;12.17;;;;;;;;;;5061235;28;20397;-78
2022/02/28 02:05:19;;;;;;;16.47;10.50;;;;;;;;;;5062567;28;20405;-78
2022/02/28 02:07:45;;;;;;;18.87;11.93;;;;;;;;;;5061875;28;20983;-78
2022/02/28 02:10:12;;;;;;;15.67;11.50;;;;;;;;;;5061283;28;20409;-78
2022/02/28 02:12:39;;;;;;;19.70;11.80;;;;;;;;;;5060272;28;20421;-78
2022/02/28 02:15:09;;;;;;;19.83;11.00;;;;;;;;;;5057849;28;20457;-78
2022/02/28 02:17:36;;;;;;;19.03;11.63;;;;;;;;;;5057790;28;20464;-78
2022/02/28 02:20:09;;;;;;;19.47;12.63;;;;;;;;;;5057624;28;20500;-78
2022/02/28 02:22:35;;;;;;;14.87;10.90;;;;;;;;;;5057487;28;20801;-78
2022/02/28 02:25:01;;;;;;;18.27;11.67;;;;;;;;;;5057647;28;20402;-78
2022/02/28 02:27:27;;;;;;;18.30;11.50;;;;;;;;;;5056413;28;20785;-78
2022/02/28 02:29:54;;;;;;;17.67;11.17;;;;;;;;;;5057298;28;20401;-77
2022/02/28 02:32:20;;;;;;;17.30;11.20;;;;;;;;;;5057380;28;20424;-78
2022/02/28 02:34:46;;;;;;;23.70;12.60;;;;;;;;;;5057367;28;20470;-77
2022/02/28 02:37:13;;;;;;;16.30;11.30;;;;;;;;;;5057666;28;20955;-78
2022/02/28 02:39:39;;;;;;;19.47;11.33;;;;;;;;;;5058021;28;20789;-78
2022/02/28 02:42:05;;;;;;;17.07;11.87;;;;;;;;;;5057808;28;20944;-78
2022/02/28 02:44:32;;;;;;;22.00;12.50;;;;;;;;;;5057608;28;20441;-78
2022/02/28 02:46:58;;;;;;;19.67;10.70;;;;;;;;;;5057172;28;20429;-77
2022/02/28 02:49:24;;;;;;;19.30;11.10;;;;;;;;;;5056723;28;20467;-78
2022/02/28 02:51:50;;;;;;;15.47;10.63;;;;;;;;;;5059657;28;20432;-78
2022/02/28 02:54:16;;;;;;;23.30;12.37;;;;;;;;;;5061251;28;20440;-78
2022/02/28 02:56:42;;;;;;;18.70;10.60;;;;;;;;;;5049471;28;20536;-77
2022/02/28 02:59:08;;;;;;;21.27;12.10;;;;;;;;;;5040765;28;20418;-77
2022/02/28 03:01:34;;;;;;;18.33;11.73;;;;;;;;;;5039719;28;20430;-77
2022/02/28 03:04:01;;;;;;;17.57;11.37;;;;;;;;;;5040449;28;20403;-77
2022/02/28 03:06:27;;;;;;;20.87;12.47;;;;;;;;;;5036791;28;20406;-78
2022/02/28 03:08:53;;;;;;;22.87;12.20;;;;;;;;;;5036464;28;20402;-77
2022/02/28 03:11:20;;;;;;;19.83;13.10;;;;;;;;;;5034963;28;20445;-77
2022/02/28 03:13:46;;;;;;;18.63;12.80;;;;;;;;;;5037947;28;20406;-77
2022/02/28 03:16:12;;;;;;;19.10;12.57;;;;;;;;;;5036416;28;20414;-77
2022/02/28 03:18:38;;;;;;;18.53;12.40;;;;;;;;;;5036629;28;20493;-79
2022/02/28 03:21:04;;;;;;;20.13;12.53;;;;;;;;;;5036704;28;20520;-77
2022/02/28 03:23:33;;;;;;;28.37;13.57;;;;;;;;;;5034912;28;20422;-79
2022/02/28 03:25:59;;;;;;;22.43;13.37;;;;;;;;;;5036130;28;20415;-77
2022/02/28 03:28:25;;;;;;;23.53;14.07;;;;;;;;;;5038192;28;20418;-79
2022/02/28 03:30:51;;;;;;;25.83;15.13;;;;;;;;;;5038271;28;20783;-77
2022/02/28 03:33:17;;;;;;;18.23;12.10;;;;;;;;;;5038840;28;20405;-79
2022/02/28 03:35:43;;;;;;;21.63;13.13;;;;;;;;;;5040021;28;20450;-79
2022/02/28 03:38:09;;;;;;;18.10;12.13;;;;;;;;;;5040586;28;20990;-78
2022/02/28 03:40:35;;;;;;;19.77;13.47;;;;;;;;;;5040958;28;20433;-78
2022/02/28 03:43:05;;;;;;;21.60;13.50;;;;;;;;;;5040273;28;20409;-79
2022/02/28 03:45:32;;;;;;;19.00;13.43;;;;;;;;;;5040998;28;20406;-79
2022/02/28 03:47:58;;;;;;;22.53;12.73;;;;;;;;;;5040654;28;20466;-78
2022/02/28 03:50:24;;;;;;;21.33;12.97;;;;;;;;;;5040304;28;20446;-78
2022/02/28 03:52:51;;;;;;;25.83;15.20;;;;;;;;;;5040489;28;20456;-79
2022/02/28 03:55:17;;;;;;;24.07;14.27;;;;;;;;;;5039899;28;20482;-79
2022/02/28 03:57:43;;;;;;;22.53;13.40;;;;;;;;;;5042176;28;20414;-79
2022/02/28 04:00:10;;;;;;;19.57;13.07;;;;;;;;;;5045331;28;20490;-79
2022/02/28 04:02:36;;;;;;;19.83;13.50;;;;;;;;;;5041036;28;20407;-79
2022/02/28 04:05:02;;;;;;;23.17;14.40;;;;;;;;;;5040599;28;20402;-79
2022/02/28 04:07:28;;;;;;;21.63;15.10;;;;;;;;;;5041217;28;20415;-79
2022/02/28 04:09:54;;;;;;;23.80;14.73;;;;;;;;;;5044425;28;20429;-79
2022/02/28 04:12:20;;;;;;;24.30;14.53;;;;;;;;;;5046618;28;20433;-79
2022/02/28 04:14:47;;;;;;;22.60;14.07;;;;;;;;;;5041316;28;20453;-79
2022/02/28 04:17:13;;;;;;;23.87;14.63;;;;;;;;;;5050277;28;20398;-79
2022/02/28 04:19:39;;;;;;;26.87;14.80;;;;;;;;;;5055299;28;20395;-78
2022/02/28 04:22:05;;;;;;;21.90;14.50;;;;;;;;;;5055982;28;20434;-79
2022/02/28 04:24:31;;;;;;;25.30;15.10;;;;;;;;;;5056876;28;20433;-79
2022/02/28 04:26:58;;;;;;;20.27;13.83;;;;;;;;;;5061308;28;20441;-78
2022/02/28 04:29:25;;;;;;;24.13;15.90;;;;;;;;;;5066024;28;20410;-79
2022/02/28 04:31:51;;;;;;;21.30;14.50;;;;;;;;;;5056102;28;20442;-79
2022/02/28 04:34:17;;;;;;;28.37;15.50;;;;;;;;;;5050564;28;21009;-79
2022/02/28 04:36:43;;;;;;;22.17;14.10;;;;;;;;;;5060898;28;20813;-79
2022/02/28 04:39:10;;;;;;;23.47;15.50;;;;;;;;;;5059669;28;20406;-79
2022/02/28 04:41:36;;;;;;;23.47;15.53;;;;;;;;;;5059368;28;20856;-78
2022/02/28 04:44:02;;;;;;;24.20;14.10;;;;;;;;;;5060252;28;20405;-79
2022/02/28 04:46:28;;;;;;;19.90;13.57;;;;;;;;;;5060703;28;20414;-79
2022/02/28 04:48:54;;;;;;;23.50;15.10;;;;;;;;;;5065427;28;20412;-79
2022/02/28 04:51:20;;;;;;;24.67;15.67;;;;;;;;;;5067939;28;20430;-79
2022/02/28 04:53:46;;;;;;;20.20;14.00;;;;;;;;;;5063497;28;20412;-78
2022/02/28 04:56:12;;;;;;;22.83;14.33;;;;;;;;;;5060217;28;20418;-78
2022/02/28 04:58:38;;;;;;;25.70;13.93;;;;;;;;;;5059725;28;20409;-78
2022/02/28 05:01:04;;;;;;;20.90;14.97;;;;;;;;;;5059451;28;20425;-78
2022/02/28 05:03:30;;;;;;;21.63;13.60;;;;;;;;;;5059319;28;20437;-78
2022/02/28 05:05:56;;;;;;;22.70;13.83;;;;;;;;;;5059332;28;20409;-78
2022/02/28 05:08:22;;;;;;;23.90;15.20;;;;;;;;;;5059338;28;20432;-78
2022/02/28 05:10:48;;;;;;;20.83;14.10;;;;;;;;;;5058192;28;20502;-78
2022/02/28 05:13:15;;;;;;;28.97;14.10;;;;;;;;;;5060238;28;20413;-78
2022/02/28 05:15:41;;;;;;;22.77;14.17;;;;;;;;;;5055723;28;20461;-78
2022/02/28 05:18:07;;;;;;;23.50;15.33;;;;;;;;;;5040275;28;20778;-78
2022/02/28 05:20:36;;;;;;;44.53;24.90;;;;;;;;;;5043959;28;20574;-77
2022/02/28 05:23:02;;;;;;;30.33;16.57;;;;;;;;;;5056489;28;20425;-78
2022/02/28 05:25:28;;;;;;;24.40;14.20;;;;;;;;;;5057455;28;20469;-78
2022/02/28 05:27:54;;;;;;;24.80;14.80;;;;;;;;;;5060462;28;20484;-78
2022/02/28 05:30:20;;;;;;;25.33;15.03;;;;;;;;;;5074633;28;20448;-78
2022/02/28 05:32:46;;;;;;;20.77;12.53;;;;;;;;;;5076690;28;20470;-78
2022/02/28 05:35:13;;;;;;;33.83;16.03;;;;;;;;;;5076412;28;20448;-78
2022/02/28 05:37:39;;;;;;;23.07;15.13;;;;;;;;;;5076664;28;20409;-78
2022/02/28 05:40:06;;;;;;;22.67;13.40;;;;;;;;;;5064624;28;20424;-78
2022/02/28 05:42:32;;;;;;;36.23;14.40;;;;;;;;;;5058699;28;20452;-78
2022/02/28 05:44:59;;;;;;;28.43;13.90;;;;;;;;;;5057751;28;20488;-78
2022/02/28 05:47:25;;;;;;;22.80;12.90;;;;;;;;;;5058699;28;20455;-78
2022/02/28 05:49:51;;;;;;;20.50;12.90;;;;;;;;;;5058401;28;20402;-78
2022/02/28 05:52:17;;;;;;;22.07;12.50;;;;;;;;;;5056620;28;20524;-78
2022/02/28 05:54:43;;;;;;;20.13;12.27;;;;;;;;;;5057611;28;20457;-78
2022/02/28 05:57:10;;;;;;;23.73;13.80;;;;;;;;;;5056320;28;20409;-78
2022/02/28 05:59:36;;;;;;;25.37;12.83;;;;;;;;;;5056015;28;20429;-78
2022/02/28 06:02:02;;;;;;;19.17;11.93;;;;;;;;;;5056628;28;20439;-78
2022/02/28 06:04:28;;;;;;;22.40;14.10;;;;;;;;;;5055911;28;20420;-77
2022/02/28 06:06:54;;;;;;;20.43;12.40;;;;;;;;;;5069239;28;20413;-78
2022/02/28 06:09:20;;;;;;;23.77;13.63;;;;;;;;;;5076772;28;20405;-78
2022/02/28 06:11:46;;;;;;;19.77;13.00;;;;;;;;;;5058555;28;20451;-78
2022/02/28 06:14:12;;;;;;;22.17;13.50;;;;;;;;;;5056563;28;20512;-76
2022/02/28 06:16:38;;;;;;;25.70;13.33;;;;;;;;;;5056173;28;20902;-78
2022/02/28 06:19:05;;;;;;;23.63;13.00;;;;;;;;;;5057938;28;20413;-77
2022/02/28 06:21:31;;;;;;;20.50;12.20;;;;;;;;;;5072481;28;20440;-77
2022/02/28 06:23:57;;;;;;;21.73;13.40;;;;;;;;;;5063636;28;20409;-77
2022/02/28 06:26:23;;;;;;;19.47;13.60;;;;;;;;;;5052955;28;20409;-77
2022/02/28 06:28:49;;;;;;;21.60;13.23;;;;;;;;;;5054558;28;20433;-78
2022/02/28 06:31:15;;;;;;;18.77;12.40;;;;;;;;;;5055199;28;20428;-77
2022/02/28 06:33:41;;;;;;;19.08;12.73;;;;;;;;;;5052886;28;20408;-77
2022/02/28 06:36:07;;;;;;;22.63;14.23;;;;;;;;;;5064173;28;20495;-77
2022/02/28 06:38:34;;;;;;;20.80;13.57;;;;;;;;;;5076868;28;20676;-77
2022/02/28 06:41:00;;;;;;;18.10;12.73;;;;;;;;;;5075392;28;20421;-78
2022/02/28 06:43:26;;;;;;;20.20;12.33;;;;;;;;;;5074277;28;20437;-77
2022/02/28 06:45:53;;;;;;;19.40;11.50;;;;;;;;;;5068722;28;20405;-77
2022/02/28 06:48:19;;;;;;;16.80;11.60;;;;;;;;;;5057297;28;20482;-77
2022/02/28 06:50:46;;;;;;;17.37;11.00;;;;;;;;;;5056245;28;20429;-79
2022/02/28 06:53:18;;;;;;;15.50;10.60;;;;;;;;;;5059264;28;20752;-77
2022/02/28 06:55:45;;;;;;;18.17;12.20;;;;;;;;;;5056111;28;20460;-76
2022/02/28 06:58:11;;;;;;;18.40;12.53;;;;;;;;;;5065227;28;20408;-77
2022/02/28 07:00:37;;;;;;;20.20;12.27;;;;;;;;;;5078060;28;20429;-79
2022/02/28 07:03:03;;;;;;;15.83;11.20;;;;;;;;;;5065423;28;20920;-78
2022/02/28 07:05:29;;;;;;;22.67;14.20;;;;;;;;;;5059358;28;20896;-79
2022/02/28 07:07:56;;;;;;;23.37;11.13;;;;;;;;;;5059966;28;20774;-79
2022/02/28 07:10:23;;;;;;;29.87;12.07;;;;;;;;;;5059921;28;20441;-79
2022/02/28 07:12:49;;;;;;;20.35;12.35;;;;;;;;;;5060260;28;20908;-78
2022/02/28 07:15:15;;;;;;;18.48;12.90;;;;;;;;;;5065910;28;20794;-78
2022/02/28 07:17:41;;;;;;;18.10;12.67;;;;;;;;;;5072394;28;20281;-78
2022/02/28 07:20:08;;;;;;;20.13;12.73;;;;;;;;;;5060352;28;20455;-79
2022/02/28 07:22:34;;;;;;;19.40;11.57;;;;;;;;;;5067252;28;20481;-78
2022/02/28 07:25:00;;;;;;;19.23;11.50;;;;;;;;;;5065271;28;20398;-79
2022/02/28 07:27:26;;;;;;;17.43;12.50;;;;;;;;;;5061371;28;20538;-78
2022/02/28 07:29:52;;;;;;;17.50;12.10;;;;;;;;;;5060333;28;20405;-79
2022/02/28 07:32:19;;;;;;;22.43;12.50;;;;;;;;;;5061295;28;20418;-78
2022/02/28 07:34:45;;;;;;;22.77;13.83;;;;;;;;;;5057780;28;20442;-77
2022/02/28 07:37:11;;;;;;;23.00;13.87;;;;;;;;;;5055609;28;20481;-77
2022/02/28 07:39:37;;;;;;;21.97;12.93;;;;;;;;;;5054670;28;20414;-77
2022/02/28 07:42:03;;;;;;;23.07;12.93;;;;;;;;;;5056539;28;20440;-78
2022/02/28 07:44:29;;;;;;;23.10;13.37;;;;;;;;;;5056285;28;20401;-78
2022/02/28 07:46:55;;;;;;;19.10;11.83;;;;;;;;;;5053787;28;20413;-77
2022/02/28 07:49:22;;;;;;;17.90;11.60;;;;;;;;;;5055724;28;20408;-77
2022/02/28 07:51:48;;;;;;;19.60;12.60;;;;;;;;;;5054618;28;20851;-77
2022/02/28 07:54:14;;;;;;;19.07;11.57;;;;;;;;;;5056332;28;20441;-77
2022/02/28 07:56:40;;;;;;;18.90;13.10;;;;;;;;;;5056367;28;20398;-79
2022/02/28 07:59:06;;;;;;;21.97;13.07;;;;;;;;;;5056771;28;20410;-78
2022/02/28 08:01:32;;;;;;;21.67;13.03;;;;;;;;;;5066647;28;20418;-78
2022/02/28 08:03:59;;;;;;;18.43;12.93;;;;;;;;;;5063132;28;20418;-78
2022/02/28 08:06:25;;;;;;;20.63;11.90;;;;;;;;;;5057471;28;21003;-79
2022/02/28 08:08:51;;;;;;;21.00;11.60;;;;;;;;;;5055584;28;20422;-79
2022/02/28 08:11:17;;;;;;;20.63;11.33;;;;;;;;;;5053591;28;20779;-78
2022/02/28 08:13:43;;;;;;;13.00;11.37;;;;;;;;;;5049703;28;20437;-77
2022/02/28 08:16:09;;;;;;;17.87;12.87;;;;;;;;;;5054381;28;20456;-77
2022/02/28 08:18:35;;;;;;;22.67;12.20;;;;;;;;;;5054982;28;20445;-77
2022/02/28 08:21:01;;;;;;;21.30;13.07;;;;;;;;;;5055136;28;20507;-77
2022/02/28 08:23:27;;;;;;;22.77;13.00;;;;;;;;;;5055498;28;20425;-77
2022/02/28 08:25:53;;;;;;;19.70;12.40;;;;;;;;;;5048939;28;20507;-77
2022/02/28 08:28:19;;;;;;;16.87;11.93;;;;;;;;;;5049684;28;20436;-77
2022/02/28 08:30:47;;;;;;;15.50;10.87;;;;;;;;;;5054132;28;20529;-77
2022/02/28 08:33:14;;;;;;;18.60;11.50;;;;;;;;;;5050301;28;21135;-78
2022/02/28 08:35:40;;;;;;;16.10;11.13;;;;;;;;;;5052038;28;20464;-77
2022/02/28 08:38:06;;;;;;;18.50;11.80;;;;;;;;;;5049045;28;20789;-78
2022/02/28 08:40:32;;;;;;;17.03;10.73;;;;;;;;;;5050884;28;20866;-79
2022/02/28 08:42:58;;;;;;;14.80;9.97;;;;;;;;;;5051898;28;20796;-77
2022/02/28 08:45:24;;;;;;;16.20;11.50;;;;;;;;;;5054434;28;20445;-79
2022/02/28 08:47:50;;;;;;;17.80;11.03;;;;;;;;;;5056018;28;20751;-79
2022/02/28 08:50:17;;;;;;;18.77;11.10;;;;;;;;;;5058071;28;20474;-78
2022/02/28 08:52:46;;;;;;;16.97;10.80;;;;;;;;;;5058553;28;20410;-78
2022/02/28 08:55:12;;;;;;;15.47;11.53;;;;;;;;;;5059217;28;20524;-79
2022/02/28 08:57:38;;;;;;;15.60;9.20;;;;;;;;;;5057695;28;20413;-79
2022/02/28 09:00:07;;;;;;;13.57;9.60;;;;;;;;;;5058066;28;20948;-79
2022/02/28 09:02:34;;;;;;;10.93;8.00;;;;;;;;;;5059017;28;20905;-78
2022/02/28 09:05:00;;;;;;;13.63;8.90;;;;;;;;;;5052446;28;20418;-78
2022/02/28 09:07:26;;;;;;;14.93;8.73;;;;;;;;;;5052772;28;20509;-78
2022/02/28 09:09:52;;;;;;;12.20;8.90;;;;;;;;;;5053798;28;21015;-77
2022/02/28 09:12:18;;;;;;;17.93;10.00;;;;;;;;;;5052305;28;20875;-77
2022/02/28 09:14:44;;;;;;;15.10;9.57;;;;;;;;;;5051938;28;21019;-77
2022/02/28 09:17:10;;;;;;;17.23;10.97;;;;;;;;;;5051973;28;20447;-77
2022/02/28 09:19:36;;;;;;;14.37;8.90;;;;;;;;;;5052575;28;20448;-77
2022/02/28 09:22:03;;;;;;;18.87;12.00;;;;;;;;;;5051210;28;20449;-77
2022/02/28 09:24:32;;;;;;;18.03;10.93;;;;;;;;;;5046352;28;20828;-77
2022/02/28 09:26:58;;;;;;;15.03;10.40;;;;;;;;;;5048944;28;20429;-78
2022/02/28 09:29:24;;;;;;;15.13;9.23;;;;;;;;;;5053641;28;20551;-78
2022/02/28 09:31:50;;;;;;;16.07;9.93;;;;;;;;;;5053137;28;20437;-78
2022/02/28 09:34:16;;;;;;;15.70;9.50;;;;;;;;;;5054937;28;20409;-78
2022/02/28 09:36:42;;;;;;;13.43;9.30;;;;;;;;;;5056262;28;20413;-78
2022/02/28 09:39:08;;;;;;;19.73;9.90;;;;;;;;;;5060918;28;20897;-78
2022/02/28 09:41:35;;;;;;;12.83;10.60;;;;;;;;;;5066858;28;20476;-78
2022/02/28 09:44:05;;;;;;;14.13;9.87;;;;;;;;;;5061847;28;20424;-78
2022/02/28 09:46:31;;;;;;;16.47;10.70;;;;;;;;;;5056623;28;20414;-78
2022/02/28 09:48:57;;;;;;;16.20;10.30;;;;;;;;;;5059235;28;20418;-78
2022/02/28 09:51:23;;;;;;;19.53;10.83;;;;;;;;;;5056188;28;20438;-78
2022/02/28 09:53:50;;;;;;;15.73;9.27;;;;;;;;;;5056812;28;20425;-77
2022/02/28 09:56:20;;;;;;;13.63;9.23;;;;;;;;;;5057304;28;20536;-78
2022/02/28 09:58:46;;;;;;;13.53;9.80;;;;;;;;;;5056460;28;20794;-78
2022/02/28 10:01:13;;;;;;;14.57;8.70;;;;;;;;;;5051336;28;20473;-78
2022/02/28 10:03:40;;;;;;;19.53;9.70;;;;;;;;;;5056612;28;20432;-78
2022/02/28 10:06:06;;;;;;;15.70;10.53;;;;;;;;;;5066953;28;20502;-79
2022/02/28 10:08:44;;;;;;;20.40;13.43;;;;;;;;;;5060677;28;20417;-79
2022/02/28 10:11:30;;;;;;;15.03;10.77;;;;;;;;;;5060744;28;20452;-78
2022/02/28 10:13:57;;;;;;;17.93;10.27;;;;;;;;;;5060134;28;20431;-79
2022/02/28 10:16:46;;;;;;;12.73;9.00;;;;;;;;;;5062715;28;20417;-79
2022/02/28 10:19:21;;;;;;;15.13;9.90;;;;;;;;;;5056426;28;20413;-79
2022/02/28 10:21:51;;;;;;;16.23;10.33;;;;;;;;;;5053319;28;20440;-79
2022/02/28 10:24:26;;;;;;;18.77;12.47;;;;;;;;;;5045513;28;20409;-79
2022/02/28 10:26:57;;;;;;;14.17;9.73;;;;;;;;;;5065350;28;20425;-79
2022/02/28 10:29:23;;;;;;;12.13;8.60;;;;;;;;;;5048383;28;20424;-78
2022/02/28 10:31:49;;;;;;;18.67;10.97;;;;;;;;;;5062773;28;20804;-79
2022/02/28 10:34:15;;;;;;;15.03;11.57;;;;;;;;;;5064130;28;20422;-79
2022/02/28 10:36:48;;;;;;;16.23;11.33;;;;;;;;;;5057114;28;20413;-78
2022/02/28 10:39:14;;;;;;;15.77;10.43;;;;;;;;;;5056985;28;21020;-78
2022/02/28 10:41:41;;;;;;;16.00;10.70;;;;;;;;;;5056315;28;20491;-77
2022/02/28 10:44:12;;;;;;;16.63;10.73;;;;;;;;;;5051264;28;20421;-78
2022/02/28 10:46:42;;;;;;;13.10;9.43;;;;;;;;;;5059044;28;20436;-78
2022/02/28 10:49:11;;;;;;;17.03;9.50;;;;;;;;;;5061775;28;20421;-78
2022/02/28 10:51:51;;;;;;;13.80;9.67;;;;;;;;;;5063484;28;20438;-78
2022/02/28 10:54:27;;;;;;;13.70;9.60;;;;;;;;;;5060971;28;20542;-78
2022/02/28 10:56:54;;;;;;;13.37;8.20;;;;;;;;;;5057367;28;20429;-78
2022/02/28 10:59:21;;;;;;;13.37;8.67;;;;;;;;;;5061041;28;20504;-77
2022/02/28 11:01:47;;;;;;;17.33;9.73;;;;;;;;;;5066353;28;20425;-78
2022/02/28 11:04:14;;;;;;;13.07;9.60;;;;;;;;;;5061896;28;20425;-79
2022/02/28 11:06:42;;;;;;;16.40;10.50;;;;;;;;;;5060855;28;20425;-79
2022/02/28 11:09:08;;;;;;;13.10;10.23;;;;;;;;;;5050486;28;20526;-79
2022/02/28 11:11:34;;;;;;;13.80;9.87;;;;;;;;;;5064075;28;20440;-79
2022/02/28 11:14:01;;;;;;;15.30;10.57;;;;;;;;;;5058580;28;20425;-78
2022/02/28 11:16:28;;;;;;;14.37;11.10;;;;;;;;;;5057711;28;20832;-77
2022/02/28 11:18:54;;;;;;;14.57;9.83;;;;;;;;;;5057418;28;20430;-77
2022/02/28 11:21:20;;;;;;;15.80;10.03;;;;;;;;;;5067089;22;20945;-77
2022/02/28 11:23:47;;;;;;;15.52;9.35;;;;;;;;;;5033874;28;20455;-76
2022/02/28 11:26:15;;;;;;;12.67;9.70;;;;;;;;;;5033952;28;20174;-76
2022/02/28 11:28:41;;;;;;;12.27;9.30;;;;;;;;;;5030720;28;20422;-77
2022/02/28 11:31:10;;;;;;;14.20;9.47;;;;;;;;;;5031741;28;20434;-77
2022/02/28 11:33:39;;;;;;;12.40;9.43;;;;;;;;;;5032573;28;20497;-75
2022/02/28 11:36:05;;;;;;;15.40;10.03;;;;;;;;;;5050030;28;20485;-75
2022/02/28 11:38:31;;;;;;;16.03;9.27;;;;;;;;;;5032498;28;20820;-75
2022/02/28 11:40:57;;;;;;;11.63;8.73;;;;;;;;;;5031642;28;20516;-75
2022/02/28 11:43:24;;;;;;;14.67;10.23;;;;;;;;;;5033891;28;20446;-76
2022/02/28 11:45:58;;;;;;;13.13;9.43;;;;;;;;;;5032391;28;20450;-75
2022/02/28 11:48:41;;;;;;;17.83;10.43;;;;;;;;;;5034691;28;20441;-77
2022/02/28 11:51:08;;;;;;;17.50;11.40;;;;;;;;;;5034360;28;20873;-76
2022/02/28 11:53:43;;;;;;;12.47;9.10;;;;;;;;;;5041552;28;20453;-76
2022/02/28 11:56:19;;;;;;;19.80;10.67;;;;;;;;;;5031038;28;20894;-76
2022/02/28 11:58:55;;;;;;;14.73;10.50;;;;;;;;;;5032835;28;20425;-76
2022/02/28 12:01:29;;;;;;;15.40;10.60;;;;;;;;;;5038624;28;20508;-77
2022/02/28 12:04:07;;;;;;;14.50;9.77;;;;;;;;;;5037117;28;20493;-76
2022/02/28 12:06:51;;;;;;;13.87;9.77;;;;;;;;;;5033569;28;20415;-76
2022/02/28 12:09:35;;;;;;;14.70;10.30;;;;;;;;;;5033575;28;20507;-76
2022/02/28 12:12:20;;;;;;;18.80;11.20;;;;;;;;;;5033047;28;20430;-76
2022/02/28 12:15:04;;;;;;;16.50;10.50;;;;;;;;;;5034099;28;20458;-77
2022/02/28 12:17:42;;;;;;;15.00;10.23;;;;;;;;;;5028789;28;20463;-76
2022/02/28 12:20:21;;;;;;;13.57;10.07;;;;;;;;;;5038516;28;20415;-77
2022/02/28 12:22:53;;;;;;;16.23;11.07;;;;;;;;;;5029417;28;20499;-77
2022/02/28 12:25:34;;;;;;;14.47;10.13;;;;;;;;;;5031915;28;20422;-76
2022/02/28 12:28:21;;;;;;;15.27;10.90;;;;;;;;;;5031027;28;20490;-77
2022/02/28 12:31:00;;;;;;;15.60;10.20;;;;;;;;;;5029428;28;20444;-76
2022/02/28 12:33:35;;;;;;;16.17;10.60;;;;;;;;;;5023929;28;20418;-76
2022/02/28 12:36:07;;;;;;;14.70;10.93;;;;;;;;;;5030040;28;20540;-77
2022/02/28 12:38:44;;;;;;;14.70;10.00;;;;;;;;;;5029625;28;20838;-77
2022/02/28 12:41:11;;;;;;;14.30;9.67;;;;;;;;;;5027498;28;20466;-76
2022/02/28 12:43:37;;;;;;;15.37;8.40;;;;;;;;;;5031217;28;20986;-76
2022/02/28 12:46:04;;;;;;;13.00;9.40;;;;;;;;;;5027438;28;20418;-77
2022/02/28 12:48:31;;;;;;;10.10;7.80;;;;;;;;;;5026738;28;20517;-77
2022/02/28 12:51:01;;;;;;;14.13;8.63;;;;;;;;;;5029382;28;20418;-76
2022/02/28 12:53:28;;;;;;;11.60;8.70;;;;;;;;;;5030553;28;20433;-76
2022/02/28 12:55:56;;;;;;;15.00;9.10;;;;;;;;;;5030922;28;20452;-76
2022/02/28 12:58:30;;;;;;;11.00;7.90;;;;;;;;;;5030012;28;20512;-77
2022/02/28 13:01:12;;;;;;;14.77;9.33;;;;;;;;;;5019569;28;20179;-77
2022/02/28 13:03:39;;;;;;;10.70;8.10;;;;;;;;;;5024061;28;20450;-76
2022/02/28 13:06:06;;;;;;;12.63;9.37;;;;;;;;;;5027671;28;20176;-76
2022/02/28 13:08:33;;;;;;;16.47;11.20;;;;;;;;;;5030898;28;20441;-77
2022/02/28 13:11:08;;;;;;;16.15;10.50;;;;;;;;;;5032410;28;20441;-79
2022/02/28 13:13:34;;;;;;;14.35;10.70;;;;;;;;;;5026118;28;20434;-77
2022/02/28 13:16:01;;;;;;;15.20;10.20;;;;;;;;;;5029853;28;20196;-77
2022/02/28 13:18:30;;;;;;;12.90;9.40;;;;;;;;;;5029340;28;20420;-77
2022/02/28 13:20:57;;;;;;;13.32;9.82;;;;;;;;;;5025667;28;20458;-76
2022/02/28 13:23:23;;;;;;;11.57;8.95;;;;;;;;;;5025672;28;20471;-77
2022/02/28 13:25:53;;;;;;;12.20;10.10;;;;;;;;;;5026594;28;20195;-77
2022/02/28 13:28:49;;;;;;;10.60;8.73;;;;;;;;;;5029210;28;20431;-78
2022/02/28 13:31:15;;;;;;;13.95;9.90;;;;;;;;;;5014601;28;20437;-76
2022/02/28 13:33:41;;;;;;;11.63;9.20;;;;;;;;;;5029848;28;20183;-77
2022/02/28 13:36:07;;;;;;;13.73;9.20;;;;;;;;;;5030743;28;20446;-77
2022/02/28 13:38:33;;;;;;;10.70;8.70;;;;;;;;;;5023616;28;20565;-76
2022/02/28 13:40:59;;;;;;;12.77;8.60;;;;;;;;;;5026215;28;20417;-76
2022/02/28 13:43:30;;;;;;;11.80;8.47;;;;;;;;;;5029191;28;20168;-75
2022/02/28 13:45:58;;;;;;;13.00;9.03;;;;;;;;;;5027618;28;20441;-76
2022/02/28 13:48:24;;;;;;;12.98;8.20;;;;;;;;;;5027937;28;20421;-76
2022/02/28 13:50:51;;;;;;;12.53;8.93;;;;;;;;;;5027613;28;20175;-75
2022/02/28 13:53:17;;;;;;;12.37;8.53;;;;;;;;;;5027739;28;20422;-75
2022/02/28 13:55:44;;;;;;;12.67;9.70;;;;;;;;;;5028212;28;20453;-77
2022/02/28 13:58:12;;;;;;;12.27;9.43;;;;;;;;;;5017978;28;20430;-75
2022/02/28 14:00:48;;;;;;;11.73;7.80;;;;;;;;;;5022679;28;20421;-75
2022/02/28 14:03:14;;;;;;;14.43;6.90;;;;;;;;;;5024265;28;20983;-76
2022/02/28 14:05:41;;;;;;;13.20;6.60;;;;;;;;;;5030027;28;20525;-76
2022/02/28 14:08:12;;;;;;;13.33;7.80;;;;;;;;;;5026627;28;20422;-75
2022/02/28 14:10:39;;;;;;;11.70;7.20;;;;;;;;;;5032221;28;20426;-75
2022/02/28 14:13:16;;;;;;;14.30;7.60;;;;;;;;;;5030231;28;20430;-75
2022/02/28 14:15:42;;;;;;;10.03;8.20;;;;;;;;;;5026901;28;20454;-76
2022/02/28 14:18:08;;;;;;;9.20;7.27;;;;;;;;;;5030368;28;20549;-77
2022/02/28 14:20:38;;;;;;;10.47;7.27;;;;;;;;;;5034491;28;20432;-76
2022/02/28 14:23:04;;;;;;;8.37;6.70;;;;;;;;;;5029414;28;20792;-76